sensor_id;sensor_type;location;lat;lon;timestamp;pressure;altitude;pressure_sealevel;temperature;humidity
30554;BME280;17335;50.720;7.452;2023-03-18T00:00:24;98705.22;;;9.13;100.00
30554;BME280;17335;50.720;7.452;2023-03-18T00:02:50;98709.97;;;9.19;100.00
30554;BME280;17335;50.720;7.452;2023-03-18T00:05:18;98699.56;;;9.16;100.00
30554;BME280;17335;50.720;7.452;2023-03-18T00:07:45;98696.19;;;9.14;100.00
30554;BME280;17335;50.720;7.452;2023-03-18T00:10:12;98707.81;;;9.23;100.00
30554;BME280;17335;50.720;7.452;2023-03-18T00:12:40;98712.50;;;9.21;100.00
30554;BME280;17335;50.720;7.452;2023-03-18T00:15:09;98711.91;;;9.27;100.00
30554;BME280;17335;50.720;7.452;2023-03-18T00:17:36;98705.13;;;9.23;100.00
30554;BME280;17335;50.720;7.452;2023-03-18T00:20:04;98707.22;;;9.29;100.00
30554;BME280;17335;50.720;7.452;2023-03-18T00:22:33;98713.88;;;9.25;100.00
30554;BME280;17335;50.720;7.452;2023-03-18T00:25:02;98713.25;;;9.31;100.00
30554;BME280;17335;50.720;7.452;2023-03-18T00:27:29;98712.50;;;9.21;100.00
30554;BME280;17335;50.720;7.452;2023-03-18T00:29:55;98715.31;;;9.19;100.00
30554;BME280;17335;50.720;7.452;2023-03-18T00:32:25;98712.34;;;9.23;100.00
30554;BME280;17335;50.720;7.452;2023-03-18T00:34:54;98716.41;;;9.27;100.00
30554;BME280;17335;50.720;7.452;2023-03-18T00:37:24;98711.59;;;9.30;100.00
30554;BME280;17335;50.720;7.452;2023-03-18T00:40:03;98713.56;;;9.28;100.00
30554;BME280;17335;50.720;7.452;2023-03-18T00:42:34;98712.03;;;9.26;100.00
30554;BME280;17335;50.720;7.452;2023-03-18T00:45:07;98715.56;;;9.26;100.00
30554;BME280;17335;50.720;7.452;2023-03-18T00:47:37;98712.50;;;9.21;100.00
30554;BME280;17335;50.720;7.452;2023-03-18T00:50:05;98721.22;;;9.23;100.00
30554;BME280;17335;50.720;7.452;2023-03-18T00:52:33;98718.47;;;9.15;100.00
30554;BME280;17335;50.720;7.452;2023-03-18T00:55:00;98722.81;;;9.16;100.00
30554;BME280;17335;50.720;7.452;2023-03-18T00:57:28;98714.72;;;9.26;100.00
30554;BME280;17335;50.720;7.452;2023-03-18T00:59:55;98711.81;;;9.19;100.00
30554;BME280;17335;50.720;7.452;2023-03-18T01:02:22;98711.94;;;9.17;100.00
30554;BME280;17335;50.720;7.452;2023-03-18T01:04:50;98711.34;;;9.24;100.00
30554;BME280;17335;50.720;7.452;2023-03-18T01:07:17;98720.63;;;9.29;100.00
30554;BME280;17335;50.720;7.452;2023-03-18T01:09:44;98715.25;;;9.29;100.00
30554;BME280;17335;50.720;7.452;2023-03-18T01:12:12;98709.75;;;9.31;100.00
30554;BME280;17335;50.720;7.452;2023-03-18T01:14:39;98715.66;;;9.34;100.00
30554;BME280;17335;50.720;7.452;2023-03-18T01:17:06;98709.91;;;9.29;100.00
30554;BME280;17335;50.720;7.452;2023-03-18T01:19:35;98709.59;;;9.32;100.00
30554;BME280;17335;50.720;7.452;2023-03-18T01:22:03;98694.38;;;9.33;100.00
30554;BME280;17335;50.720;7.452;2023-03-18T01:24:30;98687.78;;;9.27;100.00
30554;BME280;17335;50.720;7.452;2023-03-18T01:26:56;98697.88;;;9.33;100.00
30554;BME280;17335;50.720;7.452;2023-03-18T01:29:23;98687.88;;;9.35;100.00
30554;BME280;17335;50.720;7.452;2023-03-18T01:31:50;98681.81;;;9.33;100.00
30554;BME280;17335;50.720;7.452;2023-03-18T01:34:17;98685.88;;;9.37;100.00
30554;BME280;17335;50.720;7.452;2023-03-18T01:36:44;98691.84;;;9.31;100.00
30554;BME280;17335;50.720;7.452;2023-03-18T01:39:11;98696.38;;;9.31;100.00
30554;BME280;17335;50.720;7.452;2023-03-18T01:41:38;98693.22;;;9.35;100.00
30554;BME280;17335;50.720;7.452;2023-03-18T01:44:19;98682.13;;;9.30;100.00
30554;BME280;17335;50.720;7.452;2023-03-18T01:46:48;98688.72;;;9.36;100.00
30554;BME280;17335;50.720;7.452;2023-03-18T01:49:25;98689.84;;;9.33;100.00
30554;BME280;17335;50.720;7.452;2023-03-18T01:52:00;98694.66;;;9.30;100.00
30554;BME280;17335;50.720;7.452;2023-03-18T01:54:31;98695.81;;;9.27;100.00
30554;BME280;17335;50.720;7.452;2023-03-18T01:57:00;98685.19;;;9.35;100.00
30554;BME280;17335;50.720;7.452;2023-03-18T01:59:30;98683.50;;;9.34;100.00
30554;BME280;17335;50.720;7.452;2023-03-18T02:02:05;98694.50;;;9.31;100.00
30554;BME280;17335;50.720;7.452;2023-03-18T02:04:37;98690.63;;;9.26;100.00
30554;BME280;17335;50.720;7.452;2023-03-18T02:07:05;98685.78;;;9.29;100.00
30554;BME280;17335;50.720;7.452;2023-03-18T02:09:33;98690.47;;;9.27;100.00
30554;BME280;17335;50.720;7.452;2023-03-18T02:12:00;98693.22;;;9.35;100.00
30554;BME280;17335;50.720;7.452;2023-03-18T02:14:27;98687.00;;;9.35;100.00
30554;BME280;17335;50.720;7.452;2023-03-18T02:17:03;98694.66;;;9.30;100.00
30554;BME280;17335;50.720;7.452;2023-03-18T02:22:24;98685.19;;;9.17;100.00
30554;BME280;17335;50.720;7.452;2023-03-18T02:25:03;98687.16;;;9.15;100.00
30554;BME280;17335;50.720;7.452;2023-03-18T02:27:35;98690.00;;;9.14;100.00
30554;BME280;17335;50.720;7.452;2023-03-18T02:30:17;98681.72;;;9.07;100.00
30554;BME280;17335;50.720;7.452;2023-03-18T02:32:45;98675.44;;;8.98;100.00
30554;BME280;17335;50.720;7.452;2023-03-18T02:35:13;98665.56;;;8.99;100.00
30554;BME280;17335;50.720;7.452;2023-03-18T02:37:40;98664.19;;;8.95;100.00
30554;BME280;17335;50.720;7.452;2023-03-18T02:40:29;98666.63;;;8.88;100.00
30554;BME280;17335;50.720;7.452;2023-03-18T02:48:39;98672.44;;;8.83;100.00
30554;BME280;17335;50.720;7.452;2023-03-18T02:51:07;98672.75;;;8.80;100.00
30554;BME280;17335;50.720;7.452;2023-03-18T02:53:34;98670.66;;;8.74;100.00
30554;BME280;17335;50.720;7.452;2023-03-18T02:56:01;98680.38;;;8.75;100.00
30554;BME280;17335;50.720;7.452;2023-03-18T02:58:28;98674.09;;;8.67;100.00
30554;BME280;17335;50.720;7.452;2023-03-18T03:00:55;98675.47;;;8.71;100.00
30554;BME280;17335;50.720;7.452;2023-03-18T03:03:24;98671.56;;;8.65;100.00
30554;BME280;17335;50.720;7.452;2023-03-18T03:05:52;98678.84;;;8.73;100.00
30554;BME280;17335;50.720;7.452;2023-03-18T03:08:19;98679.88;;;8.62;100.00
30554;BME280;17335;50.720;7.452;2023-03-18T03:10:45;98686.88;;;8.73;100.00
30554;BME280;17335;50.720;7.452;2023-03-18T03:13:12;98681.50;;;8.73;100.00
30554;BME280;17335;50.720;7.452;2023-03-18T03:15:39;98693.81;;;8.66;100.00
30554;BME280;17335;50.720;7.452;2023-03-18T03:18:06;98691.69;;;8.69;100.00
30554;BME280;17335;50.720;7.452;2023-03-18T03:20:33;98686.03;;;8.72;100.00
30554;BME280;17335;50.720;7.452;2023-03-18T03:23:01;98688.56;;;8.74;100.00
30554;BME280;17335;50.720;7.452;2023-03-18T03:25:28;98681.81;;;8.70;100.00
30554;BME280;17335;50.720;7.452;2023-03-18T03:27:56;98681.50;;;8.73;100.00
30554;BME280;17335;50.720;7.452;2023-03-18T03:30:22;98685.25;;;8.62;100.00
30554;BME280;17335;50.720;7.452;2023-03-18T03:32:49;98685.53;;;8.59;100.00
30554;BME280;17335;50.720;7.452;2023-03-18T03:35:18;98693.13;;;8.63;100.00
30554;BME280;17335;50.720;7.452;2023-03-18T03:37:45;98692.31;;;8.53;100.00
30554;BME280;17335;50.720;7.452;2023-03-18T03:40:14;98692.91;;;8.47;100.00
30554;BME280;17335;50.720;7.452;2023-03-18T03:42:42;98693.91;;;8.46;100.00
30554;BME280;17335;50.720;7.452;2023-03-18T03:45:11;98700.97;;;8.37;100.00
30554;BME280;17335;50.720;7.452;2023-03-18T03:47:40;98698.72;;;8.33;100.00
30554;BME280;17335;50.720;7.452;2023-03-18T03:50:10;98701.38;;;8.33;100.00
30554;BME280;17335;50.720;7.452;2023-03-18T03:52:37;98703.78;;;8.36;100.00
30554;BME280;17335;50.720;7.452;2023-03-18T03:55:07;98704.88;;;8.33;100.00
30554;BME280;17335;50.720;7.452;2023-03-18T03:57:34;98708.31;;;8.25;100.00
30554;BME280;17335;50.720;7.452;2023-03-18T04:00:09;98725.63;;;8.21;100.00
30554;BME280;17335;50.720;7.452;2023-03-18T04:02:40;98724.63;;;8.22;100.00
30554;BME280;17335;50.720;7.452;2023-03-18T04:05:09;98730.41;;;8.18;100.00
30554;BME280;17335;50.720;7.452;2023-03-18T04:07:38;98728.16;;;8.23;100.00
30554;BME280;17335;50.720;7.452;2023-03-18T04:10:05;98732.38;;;8.25;100.00
30554;BME280;17335;50.720;7.452;2023-03-18T04:12:32;98731.09;;;8.30;100.00
30554;BME280;17335;50.720;7.452;2023-03-18T04:14:58;98737.16;;;8.22;100.00
30554;BME280;17335;50.720;7.452;2023-03-18T04:17:25;98735.88;;;8.26;100.00
30554;BME280;17335;50.720;7.452;2023-03-18T04:19:52;98731.50;;;8.35;100.00
30554;BME280;17335;50.720;7.452;2023-03-18T04:22:19;98743.47;;;8.31;100.00
30554;BME280;17335;50.720;7.452;2023-03-18T04:24:45;98749.53;;;8.33;100.00
30554;BME280;17335;50.720;7.452;2023-03-18T04:27:12;98749.13;;;8.27;100.00
30554;BME280;17335;50.720;7.452;2023-03-18T04:29:38;98741.91;;;8.38;100.00
30554;BME280;17335;50.720;7.452;2023-03-18T04:32:06;98750.22;;;8.35;100.00
30554;BME280;17335;50.720;7.452;2023-03-18T04:34:33;98747.94;;;8.40;100.00
30554;BME280;17335;50.720;7.452;2023-03-18T04:36:59;98751.19;;;8.34;100.00
30554;BME280;17335;50.720;7.452;2023-03-18T04:39:26;98753.56;;;8.37;100.00
30554;BME280;17335;50.720;7.452;2023-03-18T04:41:53;98746.09;;;8.40;100.00
30554;BME280;17335;50.720;7.452;2023-03-18T04:44:22;98737.25;;;8.40;100.00
30554;BME280;17335;50.720;7.452;2023-03-18T04:46:51;98745.00;;;8.43;100.00
30554;BME280;17335;50.720;7.452;2023-03-18T04:49:20;98743.59;;;8.49;100.00
30554;BME280;17335;50.720;7.452;2023-03-18T04:51:46;98767.34;;;8.42;100.00
30554;BME280;17335;50.720;7.452;2023-03-18T04:54:13;98763.16;;;8.39;100.00
30554;BME280;17335;50.720;7.452;2023-03-18T04:56:40;98757.94;;;8.38;100.00
30554;BME280;17335;50.720;7.452;2023-03-18T04:59:07;98755.56;;;8.35;100.00
30554;BME280;17335;50.720;7.452;2023-03-18T05:01:34;98749.66;;;8.41;100.00
30554;BME280;17335;50.720;7.452;2023-03-18T05:04:01;98754.56;;;8.45;100.00
30554;BME280;17335;50.720;7.452;2023-03-18T05:06:30;98759.78;;;8.47;100.00
30554;BME280;17335;50.720;7.452;2023-03-18T05:08:57;98755.72;;;8.43;100.00
30554;BME280;17335;50.720;7.452;2023-03-18T05:11:25;98748.63;;;8.42;100.00
30554;BME280;17335;50.720;7.452;2023-03-18T05:13:52;98743.28;;;8.52;100.00
30554;BME280;17335;50.720;7.452;2023-03-18T05:16:18;98747.34;;;8.56;100.00
30554;BME280;17335;50.720;7.452;2023-03-18T05:18:45;98730.91;;;8.51;100.00
30554;BME280;17335;50.720;7.452;2023-03-18T05:21:12;98748.66;;;8.52;100.00
30554;BME280;17335;50.720;7.452;2023-03-18T05:23:39;98745.81;;;8.53;100.00
30554;BME280;17335;50.720;7.452;2023-03-18T05:26:06;98740.75;;;8.50;100.00
30554;BME280;17335;50.720;7.452;2023-03-18T05:28:34;98746.41;;;8.47;100.00
30554;BME280;17335;50.720;7.452;2023-03-18T05:31:01;98748.38;;;8.45;100.00
30554;BME280;17335;50.720;7.452;2023-03-18T05:33:27;98752.22;;;8.42;100.00
30554;BME280;17335;50.720;7.452;2023-03-18T05:35:55;98750.91;;;8.37;100.00
30554;BME280;17335;50.720;7.452;2023-03-18T05:38:22;98758.22;;;8.35;100.00
30554;BME280;17335;50.720;7.452;2023-03-18T05:40:50;98755.72;;;8.43;100.00
30554;BME280;17335;50.720;7.452;2023-03-18T05:43:16;98758.50;;;8.41;100.00
30554;BME280;17335;50.720;7.452;2023-03-18T05:45:43;98759.09;;;8.45;100.00
30554;BME280;17335;50.720;7.452;2023-03-18T05:48:10;98752.31;;;8.41;100.00
30554;BME280;17335;50.720;7.452;2023-03-18T05:50:39;98762.28;;;8.39;100.00
30554;BME280;17335;50.720;7.452;2023-03-18T05:53:08;98772.72;;;8.42;100.00
30554;BME280;17335;50.720;7.452;2023-03-18T05:55:36;98763.84;;;8.41;100.00
30554;BME280;17335;50.720;7.452;2023-03-18T05:58:03;98752.03;;;8.44;100.00
30554;BME280;17335;50.720;7.452;2023-03-18T06:00:30;98765.41;;;8.44;100.00
30554;BME280;17335;50.720;7.452;2023-03-18T06:02:58;98766.66;;;8.40;100.00
30554;BME280;17335;50.720;7.452;2023-03-18T06:05:26;98767.78;;;8.47;100.00
30554;BME280;17335;50.720;7.452;2023-03-18T06:07:53;98781.88;;;8.49;100.00
30554;BME280;17335;50.720;7.452;2023-03-18T06:10:21;98779.78;;;8.43;100.00
30554;BME280;17335;50.720;7.452;2023-03-18T06:12:48;98778.34;;;8.49;100.00
30554;BME280;17335;50.720;7.452;2023-03-18T06:15:16;98777.38;;;8.40;100.00
30554;BME280;17335;50.720;7.452;2023-03-18T06:17:43;98769.09;;;8.43;100.00
30554;BME280;17335;50.720;7.452;2023-03-18T06:20:11;98775.38;;;8.42;100.00
30554;BME280;17335;50.720;7.452;2023-03-18T06:22:38;98774.56;;;8.51;100.00
30554;BME280;17335;50.720;7.452;2023-03-18T06:25:05;98778.88;;;8.62;100.00
30554;BME280;17335;50.720;7.452;2023-03-18T06:27:34;98781.16;;;8.57;100.00
30554;BME280;17335;50.720;7.452;2023-03-18T06:30:01;98782.44;;;8.53;100.00
30554;BME280;17335;50.720;7.452;2023-03-18T06:32:30;98795.34;;;8.57;100.00
30554;BME280;17335;50.720;7.452;2023-03-18T06:34:57;98796.22;;;8.58;100.00
30554;BME280;17335;50.720;7.452;2023-03-18T06:37:23;98796.78;;;8.52;100.00
30554;BME280;17335;50.720;7.452;2023-03-18T06:39:50;98807.22;;;8.55;100.00
30554;BME280;17335;50.720;7.452;2023-03-18T06:42:17;98809.19;;;8.53;100.00
30554;BME280;17335;50.720;7.452;2023-03-18T06:44:44;98810.03;;;8.53;100.00
30554;BME280;17335;50.720;7.452;2023-03-18T06:47:20;98807.75;;;8.58;100.00
30554;BME280;17335;50.720;7.452;2023-03-18T06:49:49;98810.00;;;8.63;100.00
30554;BME280;17335;50.720;7.452;2023-03-18T06:52:17;98808.56;;;8.69;100.00
30554;BME280;17335;50.720;7.452;2023-03-18T06:54:44;98810.97;;;8.72;100.00
30554;BME280;17335;50.720;7.452;2023-03-18T06:57:12;98812.78;;;8.71;100.00
30554;BME280;17335;50.720;7.452;2023-03-18T06:59:39;98809.97;;;8.73;100.00
30554;BME280;17335;50.720;7.452;2023-03-18T07:02:06;98815.84;;;8.76;100.00
30554;BME280;17335;50.720;7.452;2023-03-18T07:04:34;98806.09;;;8.85;100.00
30554;BME280;17335;50.720;7.452;2023-03-18T07:07:01;98802.72;;;8.93;100.00
30554;BME280;17335;50.720;7.452;2023-03-18T07:09:27;98802.72;;;8.93;100.00
30554;BME280;17335;50.720;7.452;2023-03-18T07:11:54;98811.44;;;8.95;100.00
30554;BME280;17335;50.720;7.452;2023-03-18T07:14:20;98813.94;;;9.06;100.00
30554;BME280;17335;50.720;7.452;2023-03-18T07:16:47;98807.84;;;9.04;100.00
30554;BME280;17335;50.720;7.452;2023-03-18T07:19:15;98813.31;;;9.12;100.00
30554;BME280;17335;50.720;7.452;2023-03-18T07:21:43;98804.31;;;9.13;100.00
30554;BME280;17335;50.720;7.452;2023-03-18T07:24:11;98810.34;;;9.15;100.00
30554;BME280;17335;50.720;7.452;2023-03-18T07:26:37;98813.66;;;9.27;100.00
30554;BME280;17335;50.720;7.452;2023-03-18T07:29:04;98817.72;;;9.31;100.00
30554;BME280;17335;50.720;7.452;2023-03-18T07:31:31;98821.09;;;9.33;100.00
30554;BME280;17335;50.720;7.452;2023-03-18T07:33:58;98827.03;;;9.37;100.00
30554;BME280;17335;50.720;7.452;2023-03-18T07:36:24;98819.19;;;9.44;100.00
30554;BME280;17335;50.720;7.452;2023-03-18T07:38:51;98829.72;;;9.55;100.00
30554;BME280;17335;50.720;7.452;2023-03-18T07:41:18;98831.81;;;9.61;100.00
30554;BME280;17335;50.720;7.452;2023-03-18T07:43:44;98837.47;;;9.58;100.00
30554;BME280;17335;50.720;7.452;2023-03-18T07:46:11;98836.84;;;9.64;100.00
30554;BME280;17335;50.720;7.452;2023-03-18T07:48:37;98843.22;;;9.63;100.00
30554;BME280;17335;50.720;7.452;2023-03-18T07:51:04;98842.97;;;9.74;100.00
30554;BME280;17335;50.720;7.452;2023-03-18T07:53:31;98837.84;;;9.81;100.00
30554;BME280;17335;50.720;7.452;2023-03-18T07:55:58;98837.88;;;9.99;100.00
30554;BME280;17335;50.720;7.452;2023-03-18T07:58:26;98829.91;;;10.07;100.00
30554;BME280;17335;50.720;7.452;2023-03-18T08:00:52;98831.56;;;10.08;100.00
30554;BME280;17335;50.720;7.452;2023-03-18T08:03:19;98842.38;;;10.17;100.00
30554;BME280;17335;50.720;7.452;2023-03-18T08:05:46;98837.09;;;10.25;100.00
30554;BME280;17335;50.720;7.452;2023-03-18T08:08:12;98832.03;;;10.40;100.00
30554;BME280;17335;50.720;7.452;2023-03-18T08:10:39;98832.97;;;10.57;100.00
30554;BME280;17335;50.720;7.452;2023-03-18T08:13:05;98842.44;;;10.61;100.00
30554;BME280;17335;50.720;7.452;2023-03-18T08:15:32;98831.41;;;10.72;100.00
30554;BME280;17335;50.720;7.452;2023-03-18T08:17:59;98839.31;;;10.74;100.00
30554;BME280;17335;50.720;7.452;2023-03-18T08:20:26;98842.34;;;10.79;100.00
30554;BME280;17335;50.720;7.452;2023-03-18T08:22:54;98839.25;;;10.92;100.00
30554;BME280;17335;50.720;7.452;2023-03-18T08:25:21;98838.69;;;11.14;100.00
30554;BME280;17335;50.720;7.452;2023-03-18T08:27:49;98839.72;;;11.21;100.00
30554;BME280;17335;50.720;7.452;2023-03-18T08:30:17;98829.03;;;11.30;100.00
30554;BME280;17335;50.720;7.452;2023-03-18T08:32:44;98832.38;;;11.32;100.00
30554;BME280;17335;50.720;7.452;2023-03-18T08:35:11;98840.13;;;11.43;100.00
30554;BME280;17335;50.720;7.452;2023-03-18T08:37:38;98841.88;;;11.52;100.00
30554;BME280;17335;50.720;7.452;2023-03-18T08:40:05;98829.97;;;11.63;100.00
30554;BME280;17335;50.720;7.452;2023-03-18T08:42:32;98834.53;;;11.71;100.00
30554;BME280;17335;50.720;7.452;2023-03-18T08:44:58;98829.16;;;11.87;100.00
30554;BME280;17335;50.720;7.452;2023-03-18T08:47:25;98831.75;;;11.97;100.00
30554;BME280;17335;50.720;7.452;2023-03-18T08:49:52;98826.19;;;11.98;100.00
30554;BME280;17335;50.720;7.452;2023-03-18T08:52:19;98830.91;;;12.05;100.00
30554;BME280;17335;50.720;7.452;2023-03-18T08:54:45;98824.69;;;12.21;100.00
30554;BME280;17335;50.720;7.452;2023-03-18T08:57:14;98832.59;;;12.30;100.00
30554;BME280;17335;50.720;7.452;2023-03-18T08:59:41;98826.38;;;12.38;100.00
30554;BME280;17335;50.720;7.452;2023-03-18T09:02:13;98826.88;;;12.50;100.00
30554;BME280;17335;50.720;7.452;2023-03-18T09:04:42;98820.78;;;12.56;100.00
30554;BME280;17335;50.720;7.452;2023-03-18T09:07:09;98819.56;;;12.75;100.00
30554;BME280;17335;50.720;7.452;2023-03-18T09:09:36;98821.59;;;12.81;100.00
30554;BME280;17335;50.720;7.452;2023-03-18T09:12:09;98819.72;;;12.90;100.00
30554;BME280;17335;50.720;7.452;2023-03-18T09:14:37;98807.41;;;12.95;100.00
30554;BME280;17335;50.720;7.452;2023-03-18T09:17:05;98806.91;;;13.00;100.00
30554;BME280;17335;50.720;7.452;2023-03-18T09:19:32;98806.72;;;13.02;100.00
30554;BME280;17335;50.720;7.452;2023-03-18T09:21:58;98812.44;;;13.07;100.00
30554;BME280;17335;50.720;7.452;2023-03-18T09:24:25;98812.91;;;13.10;100.00
30554;BME280;17335;50.720;7.452;2023-03-18T09:26:52;98820.69;;;13.05;100.00
30554;BME280;17335;50.720;7.452;2023-03-18T09:29:18;98821.00;;;13.10;100.00
30554;BME280;17335;50.720;7.452;2023-03-18T09:31:45;98820.97;;;13.19;100.00
30554;BME280;17335;50.720;7.452;2023-03-18T09:34:12;98817.41;;;13.35;100.00
30554;BME280;17335;50.720;7.452;2023-03-18T09:36:39;98814.28;;;13.46;100.00
30554;BME280;17335;50.720;7.452;2023-03-18T09:39:07;98808.25;;;13.44;100.00
30554;BME280;17335;50.720;7.452;2023-03-18T09:49:59;98801.38;;;13.64;100.00
30554;BME280;17335;50.720;7.452;2023-03-18T09:52:36;98806.97;;;13.63;100.00
30554;BME280;17335;50.720;7.452;2023-03-18T09:57:39;98816.84;;;13.79;100.00
30554;BME280;17335;50.720;7.452;2023-03-18T10:02:48;98806.75;;;14.19;100.00
30554;BME280;17335;50.720;7.452;2023-03-18T10:05:22;98809.88;;;14.31;100.00
30554;BME280;17335;50.720;7.452;2023-03-18T10:07:53;98811.38;;;14.48;100.00
30554;BME280;17335;50.720;7.452;2023-03-18T10:10:29;98805.22;;;14.54;100.00
30554;BME280;17335;50.720;7.452;2023-03-18T10:13:08;98805.22;;;14.54;100.00
30554;BME280;17335;50.720;7.452;2023-03-18T10:15:51;98810.16;;;14.51;100.00
30554;BME280;17335;50.720;7.452;2023-03-18T10:18:29;98809.59;;;14.63;100.00
30554;BME280;17335;50.720;7.452;2023-03-18T10:26:57;98811.16;;;14.73;100.00
30554;BME280;17335;50.720;7.452;2023-03-18T10:39:47;98814.06;;;15.16;100.00
30554;BME280;17335;50.720;7.452;2023-03-18T10:42:26;98798.03;;;15.29;100.00
30554;BME280;17335;50.720;7.452;2023-03-18T10:45:06;98794.31;;;15.30;100.00
30554;BME280;17335;50.720;7.452;2023-03-18T10:47:37;98797.47;;;15.34;100.00
30554;BME280;17335;50.720;7.452;2023-03-18T10:52:51;98795.13;;;15.46;100.00
30554;BME280;17335;50.720;7.452;2023-03-18T10:55:23;98803.59;;;15.43;100.00
30554;BME280;17335;50.720;7.452;2023-03-18T10:57:52;98802.19;;;15.47;100.00
30554;BME280;17335;50.720;7.452;2023-03-18T11:00:29;98794.44;;;15.44;100.00
30554;BME280;17335;50.720;7.452;2023-03-18T11:03:02;98800.63;;;15.37;100.00
30554;BME280;17335;50.720;7.452;2023-03-18T11:05:34;98791.09;;;15.42;100.00
30554;BME280;17335;50.720;7.452;2023-03-18T11:08:04;98786.59;;;15.49;100.00
30554;BME280;17335;50.720;7.452;2023-03-18T11:10:33;98790.09;;;15.64;100.00
30554;BME280;17335;50.720;7.452;2023-03-18T11:13:02;98794.03;;;15.77;100.00
30554;BME280;17335;50.720;7.452;2023-03-18T11:15:35;98802.47;;;15.88;100.00
30554;BME280;17335;50.720;7.452;2023-03-18T11:18:02;98807.19;;;16.01;100.00
30554;BME280;17335;50.720;7.452;2023-03-18T11:20:41;98803.47;;;16.02;100.00
30554;BME280;17335;50.720;7.452;2023-03-18T11:23:28;98805.56;;;16.07;100.00
30554;BME280;17335;50.720;7.452;2023-03-18T11:26:22;98803.38;;;16.17;100.00
30554;BME280;17335;50.720;7.452;2023-03-18T11:28:57;98806.44;;;16.07;100.00
30554;BME280;17335;50.720;7.452;2023-03-18T11:31:24;98799.72;;;16.03;100.00
30554;BME280;17335;50.720;7.452;2023-03-18T11:33:56;98805.16;;;15.88;100.00
30554;BME280;17335;50.720;7.452;2023-03-18T11:36:25;98791.53;;;15.75;100.00
30554;BME280;17335;50.720;7.452;2023-03-18T11:38:57;98796.19;;;15.66;100.00
30554;BME280;17335;50.720;7.452;2023-03-18T11:41:26;98798.03;;;15.66;100.00
30554;BME280;17335;50.720;7.452;2023-03-18T11:49:26;98794.03;;;16.20;100.00
30554;BME280;17335;50.720;7.452;2023-03-18T11:58:03;98788.00;;;16.46;100.00
30554;BME280;17335;50.720;7.452;2023-03-18T12:03:51;98788.88;;;16.53;100.00
30554;BME280;17335;50.720;7.452;2023-03-18T12:06:24;98794.34;;;16.60;100.00
30554;BME280;17335;50.720;7.452;2023-03-18T12:09:06;98793.34;;;16.61;100.00
30554;BME280;17335;50.720;7.452;2023-03-18T12:15:11;98791.66;;;16.60;100.00
30554;BME280;17335;50.720;7.452;2023-03-18T12:17:23;98788.84;;;16.46;100.00
30554;BME280;17335;50.720;7.452;2023-03-18T12:22:45;98784.34;;;16.32;100.00
30554;BME280;17335;50.720;7.452;2023-03-18T12:28:04;98784.97;;;16.56;100.00
30554;BME280;17335;50.720;7.452;2023-03-18T12:30:48;98787.25;;;16.59;100.00
30554;BME280;17335;50.720;7.452;2023-03-18T12:47:38;98774.03;;;16.42;100.00
30554;BME280;17335;50.720;7.452;2023-03-18T12:52:53;98758.06;;;16.54;100.00
30554;BME280;17335;50.720;7.452;2023-03-18T12:55:32;98755.59;;;16.59;100.00
30554;BME280;17335;50.720;7.452;2023-03-18T12:58:05;98754.34;;;16.62;100.00
30554;BME280;17335;50.720;7.452;2023-03-18T13:00:38;98758.94;;;16.61;100.00
30554;BME280;17335;50.720;7.452;2023-03-18T13:06:08;98766.47;;;16.66;100.00
30554;BME280;17335;50.720;7.452;2023-03-18T13:11:33;98771.03;;;16.65;100.00
30554;BME280;17335;50.720;7.452;2023-03-18T13:14:15;98763.00;;;16.44;100.00
30554;BME280;17335;50.720;7.452;2023-03-18T13:16:46;98772.63;;;16.25;100.00
30554;BME280;17335;50.720;7.452;2023-03-18T13:19:14;98771.56;;;16.26;100.00
30554;BME280;17335;50.720;7.452;2023-03-18T13:21:45;98762.94;;;16.16;100.00
30554;BME280;17335;50.720;7.452;2023-03-18T13:39:05;98764.06;;;16.21;100.00
30554;BME280;17335;50.720;7.452;2023-03-18T13:44:17;98762.50;;;16.34;100.00
30554;BME280;17335;50.720;7.452;2023-03-18T13:47:05;98755.78;;;16.29;100.00
30554;BME280;17335;50.720;7.452;2023-03-18T13:49:34;98758.16;;;16.11;100.00
30554;BME280;17335;50.720;7.452;2023-03-18T13:52:21;98765.56;;;16.02;100.00
30554;BME280;17335;50.720;7.452;2023-03-18T13:54:48;98763.16;;;15.92;100.00
30554;BME280;17335;50.720;7.452;2023-03-18T13:57:32;98760.53;;;15.78;100.00
30554;BME280;17335;50.720;7.452;2023-03-18T14:00:30;98762.78;;;15.59;100.00
30554;BME280;17335;50.720;7.452;2023-03-18T14:03:18;98757.25;;;15.46;100.00
30554;BME280;17335;50.720;7.452;2023-03-18T14:06:37;98760.72;;;15.40;100.00
30554;BME280;17335;50.720;7.452;2023-03-18T14:13:40;98749.66;;;15.56;100.00
30554;BME280;17335;50.720;7.452;2023-03-18T14:16:11;98754.47;;;15.75;100.00
30554;BME280;17335;50.720;7.452;2023-03-18T14:18:40;98744.91;;;15.80;100.00
30554;BME280;17335;50.720;7.452;2023-03-18T14:21:22;98740.94;;;15.75;100.00
30554;BME280;17335;50.720;7.452;2023-03-18T14:26:38;98744.38;;;15.69;100.00
30554;BME280;17335;50.720;7.452;2023-03-18T14:31:50;98743.19;;;15.35;100.00
30554;BME280;17335;50.720;7.452;2023-03-18T14:34:31;98743.22;;;15.21;100.00
30554;BME280;17335;50.720;7.452;2023-03-18T14:39:35;98737.91;;;15.12;100.00
30554;BME280;17335;50.720;7.452;2023-03-18T14:44:51;98731.16;;;15.38;100.00
30554;BME280;17335;50.720;7.452;2023-03-18T14:47:24;98729.22;;;15.53;100.00
30554;BME280;17335;50.720;7.452;2023-03-18T14:53:09;98725.91;;;15.73;100.00
30554;BME280;17335;50.720;7.452;2023-03-18T14:55:38;98722.34;;;15.72;100.00
30554;BME280;17335;50.720;7.452;2023-03-18T14:58:05;98717.78;;;15.73;100.00
30554;BME280;17335;50.720;7.452;2023-03-18T15:00:34;98713.88;;;15.75;100.00
30554;BME280;17335;50.720;7.452;2023-03-18T15:03:07;98707.97;;;15.72;100.00
30554;BME280;17335;50.720;7.452;2023-03-18T15:05:40;98716.19;;;15.79;100.00
30554;BME280;17335;50.720;7.452;2023-03-18T15:08:21;98714.03;;;15.74;100.00
30554;BME280;17335;50.720;7.452;2023-03-18T15:11:02;98700.16;;;15.77;100.00